Flight Track Log - Related Links

Times and Time Zones

All times are in EDT time to prevent confusion due to time zone crossing. See the SWA1866 flight status page for this flight to view local times or setup timezone preferences in your user account.

Time Position Orientation Groundspeed Altitude Reporting Facility
EDT Latitude Longitude Course Direction KTS MPH feet Rate Location/Type
Thu 03:39:06 PM 39.8833 -104.5833 90° East 169 194 7,000  Level Denver TRACON
Thu 03:40:06 PM 39.8833 -104.5000 90° East 227 261 9,200 1,513 Climbing Denver TRACON
Thu 03:41:05 PM 39.8742 -104.4144 98° East 249 287 10,000 1,289 Climbing Denver Center
Thu 03:42:07 PM 39.8739 -104.3106 90° East 281 323 11,800 2,516 Climbing Denver Center
Thu 03:43:09 PM 39.8731 -104.2081 91° East 286 329 15,200 2,516 Climbing Denver Center
Thu 03:44:00 PM 39.8833 -103.6499 90° East  Level FlightAware Approximate
Thu 03:44:11 PM 39.8725 -104.0803 90° East 333 383 17,000  Level Denver Center
Thu 03:45:13 PM 39.8719 -103.9469 90° East 368 423 19,600 2,516 Climbing Denver Center
Thu 03:46:15 PM 39.8786 -103.7947 87° East 388 447 22,200 2,565 Climbing Denver Center
Thu 03:47:17 PM 39.8928 -103.6464 83° East 390 449 24,900 2,371 Climbing Denver Center
Thu 03:48:19 PM 39.9092 -103.5072 81° East 403 464 27,100 1,854 Climbing Denver Center
Thu 03:49:20 PM 39.9256 -103.3586 82° East 420 483 28,700 1,707 Climbing Denver Center
Thu 03:50:22 PM 39.9453 -103.1850 82° East 434 499 30,600 1,839 Climbing Denver Center
Thu 03:51:37 PM 39.9642 -103.0114 82° East 432 497 32,900 2,029 Climbing Denver Center
Thu 03:52:38 PM 39.9833 -102.8419 82° East 424 488 35,200 1,632 Climbing Denver Center
Thu 03:53:53 PM 40.0033 -102.6475 82° East 426 490 36,600 788 Climbing Denver Center
Thu 03:54:55 PM 40.0194 -102.4986 82° East 434 499 37,000 195 Climbing Denver Center
Thu 03:55:56 PM 40.0378 -102.3236 82° East 435 501 37,000  Level Denver Center
Thu 03:56:58 PM 40.0525 -102.1747 83° East 433 498 37,000  Level Denver Center
Thu 03:58:12 PM 40.0700 -102.0000 82° East 434 499 37,000  Level Denver Center
Thu 03:59:14 PM 40.0881 -101.8258 82° East 436 502 37,000  Level Denver Center
Thu 04:00:18 PM 40.1056 -101.6511 82° East 434 499 37,000  Level Denver Center
Thu 04:01:19 PM 40.1172 -101.5281 83° East 431 496 37,000  Level Denver Center
Thu 04:02:21 PM 40.1361 -101.3294 83° East 433 498 37,000  Level Denver Center
Thu 04:03:23 PM 40.1503 -101.1783 83° East 437 503 37,000  Level Denver Center
Thu 04:04:25 PM 40.1664 -101.0056 83° East 433 498 37,000  Level Denver Center
Thu 04:05:27 PM 40.1794 -100.8572 83° East 432 497 37,000  Level Denver Center
Thu 04:06:29 PM 40.1956 -100.6850 83° East 429 494 37,000  Level Denver Center
Thu 04:07:30 PM 40.2061 -100.5369 85° East 429 494 37,000  Level Denver Center
Thu 04:08:32 PM 40.2075 -100.3644 89° East 429 494 37,000  Level Denver Center
Thu 04:09:34 PM 40.2097 -100.2153 89° East 430 495 37,000  Level Denver Center
Thu 04:10:36 PM 40.2122 -100.0422 89° East 428 493 37,000  Level Denver Center
Thu 04:11:38 PM 40.2142 -99.8881 89° East 431 496 37,000  Level Denver Center
Thu 04:12:51 PM 40.2158 -99.7308 89° East 434 499 37,000  Level Denver Center
Thu 04:13:54 PM 40.2172 -99.5431 89° East 432 497 37,000  Level Denver Center
Thu 04:14:56 PM 40.2194 -99.3864 89° East 433 498 37,000  Level Denver Center
Thu 04:15:58 PM 40.2194 -99.2297 90° East 432 497 37,000  Level Denver Center
Thu 04:16:59 PM 40.2219 -99.0433 89° East 428 493 37,000  Level Denver Center
Thu 04:18:14 PM 40.2222 -98.8558 90° East 430 495 37,000  Level Denver Center
Thu 04:18:35 PM 40.2231 -98.7950 89° East 430 495 37,000  Level Minneapolis Center
Thu 04:19:37 PM 40.2231 -98.6389 90° East 430 495 37,000  Level Minneapolis Center
Thu 04:20:40 PM 40.2219 -98.4825 90° East 430 495 37,000  Level Minneapolis Center
Thu 04:21:42 PM 40.2222 -98.3264 90° East 431 496 37,000  Level Minneapolis Center
Thu 04:22:44 PM 40.2225 -98.1714 90° East 429 494 37,000  Level Minneapolis Center
Thu 04:23:46 PM 40.2208 -97.9833 91° East 431 496 37,000  Level Minneapolis Center
Thu 04:24:48 PM 40.2208 -97.8267 90° East 431 496 37,000  Level Minneapolis Center
Thu 04:25:50 PM 40.2197 -97.6700 90° East 432 497 37,000  Level Minneapolis Center
Thu 04:26:52 PM 40.2186 -97.5139 90° East 430 495 37,000  Level Minneapolis Center
Thu 04:27:54 PM 40.2167 -97.3578 91° East 430 495 37,000  Level Minneapolis Center
Thu 04:28:56 PM 40.2150 -97.2050 91° East 429 494 37,000  Level Minneapolis Center
Thu 04:29:58 PM 40.2136 -97.0194 91° East 428 493 37,000  Level Minneapolis Center
Thu 04:31:00 PM 40.2108 -96.8647 91° East 428 493 37,000  Level Minneapolis Center
Thu 04:32:03 PM 40.2089 -96.7092 91° East 428 493 37,000  Level Minneapolis Center
Thu 04:33:05 PM 40.2067 -96.5531 91° East 431 496 37,000  Level Minneapolis Center
Thu 04:34:07 PM 40.2033 -96.3969 92° East 431 496 37,000  Level Minneapolis Center
Thu 04:35:09 PM 40.2008 -96.2067 91° East 435 501 37,000  Level Minneapolis Center
Thu 04:36:11 PM 40.2275 -96.0556 77° East 431 496 37,000  Level Minneapolis Center
Thu 04:37:13 PM 40.2567 -95.9000 76° East 437 503 37,000  Level Minneapolis Center
Thu 04:38:15 PM 40.2856 -95.7439 76° East 441 507 37,000  Level Minneapolis Center
Thu 04:39:17 PM 40.3136 -95.5917 76° East 436 502 37,000  Level Minneapolis Center
Thu 04:40:19 PM 40.3414 -95.4369 77° East 436 502 37,000  Level Minneapolis Center
Thu 04:41:21 PM 40.3747 -95.2525 77° East 436 502 37,000  Level Minneapolis Center
Thu 04:42:24 PM 40.4025 -95.0967 77° East 438 504 37,000  Level Minneapolis Center
Thu 04:43:26 PM 40.4306 -94.9417 77° East 438 504 37,000  Level Minneapolis Center
Thu 04:44:28 PM 40.4581 -94.7867 77° East 438 504 37,000  Level Minneapolis Center
Thu 04:45:30 PM 40.4836 -94.6319 78° East 435 501 37,000  Level Minneapolis Center
Thu 04:46:32 PM 40.5125 -94.4711 77° East 438 504 37,000  Level Minneapolis Center
Thu 04:47:34 PM 40.5381 -94.3189 77° East 434 499 37,000  Level Minneapolis Center
Thu 04:48:36 PM 40.5703 -94.1336 77° East 434 499 37,000  Level Minneapolis Center
Thu 04:49:38 PM 40.5953 -93.9800 78° East 433 498 37,000  Level Minneapolis Center
Thu 04:50:40 PM 40.6183 -93.8253 79° East 435 501 37,000  Level Minneapolis Center
Thu 04:51:42 PM 40.6383 -93.6697 80° East 434 499 37,000  Level Minneapolis Center
Thu 04:52:44 PM 40.6631 -93.5111 78° East 439 505 37,000  Level Minneapolis Center
Thu 04:53:46 PM 40.6908 -93.3206 79° East 441 507 37,000  Level Minneapolis Center
Thu 04:54:48 PM 40.7144 -93.1617 79° East 442 509 37,000  Level Minneapolis Center
Thu 04:55:51 PM 40.7358 -93.0036 80° East 441 507 37,000 -144 Level Minneapolis Center
Thu 04:56:53 PM 40.7575 -92.8456 80° East 440 506 36,700 -506 Descending Minneapolis Center
Thu 04:57:14 PM 40.7669 -92.7808 79° East 441 507 36,300 -1,012 Descending Chicago Center
Thu 04:58:16 PM 40.7900 -92.6172 79° East 452 520 35,300 -912 Descending Chicago Center
Thu 04:59:19 PM 40.8119 -92.4492 80° East 464 534 34,400 -1,200 Descending Chicago Center
Thu 05:00:21 PM 40.8322 -92.2858 81° East 455 524 32,800 -1,645 Descending Chicago Center
Thu 05:01:23 PM 40.8578 -92.0942 80° East 446 513 31,000 -871 Descending Chicago Center
Thu 05:02:25 PM 40.8797 -91.9394 79° East 435 501 31,000  Level Chicago Center
Thu 05:03:27 PM 40.8997 -91.7842 80° East 433 498 31,000  Level Chicago Center
Thu 05:04:29 PM 40.9192 -91.6261 81° East 436 502 31,000 -387 Level Chicago Center
Thu 05:05:31 PM 40.9392 -91.4703 80° East 434 499 30,200 -919 Descending Chicago Center
Thu 05:06:33 PM 40.9608 -91.2978 81° East 433 498 29,100 -1,016 Descending Chicago Center
Thu 05:07:35 PM 40.9803 -91.1428 81° East 427 491 28,100 -960 Descending Chicago Center
Thu 05:08:38 PM 40.9986 -90.9914 81° East 419 482 27,100 -1,056 Descending Chicago Center
Thu 05:09:40 PM 41.0161 -90.8414 81° East 414 476 25,900 -1,500 Descending Chicago Center
Thu 05:10:42 PM 41.0378 -90.6656 81° East 404 465 24,000 -1,258 Descending Chicago Center
Thu 05:11:44 PM 41.0542 -90.5217 81° East 396 456 23,300 -774 Descending Chicago Center
Thu 05:12:46 PM 41.0711 -90.3786 81° East 394 453 22,400 -968 Descending Chicago Center
Thu 05:13:48 PM 41.0875 -90.2356 81° East 391 450 21,300 -1,016 Descending Chicago Center
Thu 05:14:50 PM 41.1039 -90.0958 81° East 384 442 20,300 -968 Descending Chicago Center
Thu 05:15:52 PM 41.1200 -89.9575 81° East 379 436 19,300 -1,113 Descending Chicago Center
Thu 05:16:54 PM 41.1344 -89.8217 82° East 374 430 18,000 -1,694 Descending Chicago Center
Thu 05:17:56 PM 41.1522 -89.6631 81° East 361 415 15,800 -1,742 Descending Chicago Center
Thu 05:18:58 PM 41.1783 -89.5336 75° East 364 419 14,400 -1,161 Descending Chicago Center
Thu 05:20:00 PM 41.2158 -89.4186 67° East 345 397 13,400 -968 Descending Chicago Center
Thu 05:21:02 PM 41.2503 -89.2992 69° East 343 395 12,400 -919 Descending Chicago Center
Thu 05:22:04 PM 41.2825 -89.1897 69° East 335 386 11,500 -1,016 Descending Chicago Center
Thu 05:23:06 PM 41.3253 -89.0544 67° East 333 383 10,300 -774 Descending Chicago Center
Thu 05:24:08 PM 41.3569 -88.9481 68° East 314 361 9,900 -194 Descending Chicago Center
Thu 05:25:10 PM 41.3881 -88.8469 68° East 299 344 9,900 -339 Level Chicago Center
Thu 05:26:12 PM 41.4192 -88.7433 68° East 303 349 9,200 -1,113 Descending Chicago Center
Thu 05:27:14 PM 41.4506 -88.6392 68° East 304 350 7,600 -1,548 Descending Chicago Center
Thu 05:28:16 PM 41.4864 -88.5200 68° East 293 337 6,000 -1,258 Descending Chicago Center
Thu 05:29:18 PM 41.5156 -88.4219 68° East 287 330 5,000 -484 Descending Chicago Center
Thu 05:30:20 PM 41.5439 -88.3261 68° East 280 322 5,000  Level Chicago Center
Thu 05:31:22 PM 41.5692 -88.2300 71° East 276 318 5,000  Level Chicago Center
Thu 05:32:24 PM 41.5806 -88.1294 81° East 272 313 5,000  Level Chicago Center
Thu 05:33:26 PM 41.5922 -88.0272 81° East 276 318 5,000  Level Chicago Center
Thu 05:34:29 PM 41.6044 -87.9250 81° East 277 319 5,000  Level Chicago Center
Thu 05:35:31 PM 41.6194 -87.8033 81° East 277 319 5,000 -387 Level Chicago Center
Thu 05:36:33 PM 41.6169 -87.7083 92° East 273 314 4,200 -968 Descending Chicago Center
Thu 05:37:35 PM 41.6331 -87.6217 76° East 268 308 3,000 -581 Descending Chicago Center
Thu 05:38:37 PM 41.6872 -87.6189 North 241 277 3,000 -390 Level Chicago Center
Thu 05:39:38 PM 41.7333 -87.6833 314° West 187 215 2,200 -567 Descending Chicago TRACON
Thu 05:40:44 PM 41.7833 -87.6833 360° North 163 188 1,800 -421 Descending Chicago TRACON
Thu 05:41:32 PM 41.8000 -87.7167 304° West 146 168 1,400 -500 Descending Chicago TRACON
Thu 05:44:00 PM 41.7833 -87.7500 51° Northeast  Level FlightAware Approximate

Login

Don't have an account? Register now (free) for customized features, flight alerts, and more!